Time;durP1;ratioP1;P1;durP2;ratioP2;P2;SDS_P1;SDS_P2;PMS_P1;PMS_P2;Temp;Humidity;BMP_temperature;BMP_pressure;BME280_temperature;BME280_humidity;BME280_pressure;Samples;Min_cycle;Max_cycle;Signal;HPM_P1;HPM_P2
2023/03/03 00:01:25;;;;;;;3.85;2.05;;;;;;;12.74;61.20;96161.28;5002528;28;20494;-27
2023/03/03 00:03:51;;;;;;;3.05;1.80;;;;;;;12.81;60.63;96164.50;5004878;28;20475;-27
2023/03/03 00:06:16;;;;;;;3.88;2.42;;;;;;;12.90;60.79;96155.63;5002221;28;20021;-27
2023/03/03 00:08:42;;;;;;;3.72;2.53;;;;;;;12.95;60.74;96155.81;5002780;28;20100;-27
2023/03/03 00:11:08;;;;;;;4.15;2.90;;;;;;;12.86;61.08;96152.28;4996962;28;20453;-27
2023/03/03 00:13:52;;;;;;;4.05;2.47;;;;;;;12.85;61.09;96145.34;4996233;28;20044;-27
2023/03/03 00:16:36;;;;;;;4.28;3.00;;;;;;;12.91;60.94;96149.72;4996227;28;20027;-27
2023/03/03 00:19:01;;;;;;;;;;;;;;;12.88;60.80;96150.63;4997998;28;20030;-27
2023/03/03 00:21:30;;;;;;;5.45;2.42;;;;;;;12.99;60.72;96150.19;5009189;28;19941;-27
2023/03/03 00:24:14;;;;;;;3.03;2.30;;;;;;;13.12;60.20;96148.13;5002409;28;20026;-27
2023/03/03 00:26:43;;;;;;;3.75;2.70;;;;;;;12.94;60.69;96142.66;4995990;28;20022;-27
2023/03/03 00:29:29;;;;;;;5.43;2.33;;;;;;;12.77;61.55;96149.50;4996686;28;20034;-27
2023/03/03 00:32:11;;;;;;;2.78;2.10;;;;;;;12.88;60.62;96134.28;4995870;28;20113;-27
2023/03/03 00:34:36;;;;;;;3.88;2.35;;;;;;;12.90;61.26;96145.50;4995948;28;20026;-27
2023/03/03 00:37:03;;;;;;;3.17;2.28;;;;;;;12.82;60.88;96144.25;5001485;28;20034;-26
2023/03/03 00:39:37;;;;;;;5.22;2.30;;;;;;;12.72;61.02;96136.50;4997801;28;20026;-26
2023/03/03 00:42:32;;;;;;;3.80;2.35;;;;;;;12.91;60.65;96138.09;5000227;28;20084;-26
2023/03/03 00:44:59;;;;;;;4.57;3.17;;;;;;;12.78;60.40;96130.03;4994133;28;20121;-26
2023/03/03 00:47:36;;;;;;;4.07;2.88;;;;;;;12.79;61.11;96136.22;4996012;28;20020;-26
2023/03/03 00:50:04;;;;;;;5.40;3.35;;;;;;;12.71;61.17;96130.31;4995595;28;20097;-26
2023/03/03 00:52:34;;;;;;;5.50;3.15;;;;;;;12.67;61.69;96128.91;4995820;28;20019;-27
2023/03/03 00:55:00;;;;;;;8.68;3.30;;;;;;;12.73;61.16;96130.63;4995629;28;20022;-26
2023/03/03 00:57:25;;;;;;;5.18;2.80;;;;;;;12.85;60.96;96120.84;4994824;28;20117;-26
2023/03/03 00:59:51;;;;;;;4.78;2.67;;;;;;;12.80;61.19;96119.47;4995936;28;20077;-26
2023/03/03 01:02:16;;;;;;;4.50;2.58;;;;;;;12.69;61.52;96118.34;5002921;28;20026;-27
2023/03/03 01:04:47;;;;;;;4.45;2.80;;;;;;;12.75;61.09;96120.03;4995914;28;20041;-26
2023/03/03 01:07:13;;;;;;;4.45;2.25;;;;;;;12.82;60.61;96119.00;4995484;28;20022;-26
2023/03/03 01:09:38;;;;;;;3.05;2.05;;;;;;;12.75;60.97;96119.28;5001698;28;20416;-27
2023/03/03 01:12:04;;;;;;;3.85;2.72;;;;;;;12.69;61.02;96110.19;4997208;28;20073;-26
2023/03/03 01:14:31;;;;;;;4.07;2.47;;;;;;;12.76;60.82;96109.91;5000488;28;20522;-27
2023/03/03 01:16:57;;;;;;;3.25;2.30;;;;;;;12.62;61.25;96115.88;4995840;28;20026;-27
2023/03/03 01:19:22;;;;;;;4.82;2.20;;;;;;;12.55;61.28;96114.22;4995347;28;20526;-27
2023/03/03 01:21:48;;;;;;;3.30;2.30;;;;;;;12.69;60.95;96116.38;4995233;28;20031;-26
2023/03/03 01:24:13;;;;;;;4.95;2.63;;;;;;;12.77;60.69;96114.16;4995979;28;20057;-26
2023/03/03 01:26:39;;;;;;;4.05;2.35;;;;;;;12.70;60.89;96111.72;5001728;28;20096;-26
2023/03/03 01:29:04;;;;;;;3.58;2.50;;;;;;;12.77;60.67;96116.88;5002020;28;20464;-27
2023/03/03 01:31:30;;;;;;;3.30;2.22;;;;;;;12.65;61.21;96121.19;4995463;28;20366;-27
2023/03/03 01:33:55;;;;;;;4.22;2.17;;;;;;;12.61;60.96;96114.41;4997827;28;20057;-26
2023/03/03 01:36:25;;;;;;;3.45;2.50;;;;;;;12.56;61.56;96105.59;4995758;28;20019;-26
2023/03/03 01:38:50;;;;;;;3.65;2.63;;;;;;;12.62;61.04;96113.16;5006181;28;20030;-27
2023/03/03 01:41:16;;;;;;;6.22;2.58;;;;;;;12.61;61.36;96106.97;4997983;28;20026;-27
2023/03/03 01:43:44;;;;;;;3.88;2.50;;;;;;;12.59;61.19;96112.13;5002188;28;20077;-27
2023/03/03 01:46:28;;;;;;;3.42;2.47;;;;;;;12.84;60.42;96103.75;5001709;28;20359;-27
2023/03/03 01:49:12;;;;;;;2.90;2.28;;;;;;;12.82;60.50;96095.28;4994756;28;20027;-26
2023/03/03 01:51:46;;;;;;;4.07;2.88;;;;;;;12.72;60.62;96088.28;4995944;28;20023;-26
2023/03/03 01:54:15;;;;;;;;;;;;;;;12.83;60.42;96099.50;4995346;28;20022;-26
2023/03/03 01:56:42;;;;;;;3.72;2.05;;;;;;;12.78;60.15;96091.94;5002748;28;19910;-26
2023/03/03 01:59:35;;;;;;;3.60;2.45;;;;;;;12.66;60.86;96090.06;5005423;28;20356;-26
2023/03/03 02:02:01;;;;;;;3.53;2.40;;;;;;;12.54;60.65;96088.97;5013552;28;20100;-26
2023/03/03 02:04:27;;;;;;;5.10;3.20;;;;;;;12.87;59.84;96083.78;4998893;28;20052;-26
2023/03/03 02:07:06;;;;;;;5.30;2.45;;;;;;;12.87;60.01;96085.75;4999651;28;20393;-26
2023/03/03 02:09:42;;;;;;;3.25;2.40;;;;;;;12.63;60.37;96090.19;4998782;28;20026;-27
2023/03/03 02:12:11;;;;;;;2.92;2.35;;;;;;;12.66;59.97;96079.19;5005837;28;20025;-27
2023/03/03 02:14:37;;;;;;;5.70;2.40;;;;;;;12.76;59.84;96082.69;5003847;28;20029;-27
2023/03/03 02:17:03;;;;;;;5.32;2.47;;;;;;;12.56;60.39;96078.41;5000298;28;20493;-27
2023/03/03 02:19:51;;;;;;;3.42;2.05;;;;;;;12.66;60.24;96079.19;5002518;28;20022;-27
2023/03/03 02:22:23;;;;;;;3.80;2.63;;;;;;;12.52;60.34;96075.06;4998975;28;20034;-27
2023/03/03 02:24:58;;;;;;;5.47;2.17;;;;;;;12.62;60.39;96072.34;4998528;28;20019;-27
2023/03/03 02:27:26;;;;;;;4.00;2.40;;;;;;;12.48;60.90;96063.56;5000653;28;20030;-27
2023/03/03 02:29:51;;;;;;;3.20;2.28;;;;;;;12.54;60.14;96061.78;5002922;28;20019;-27
2023/03/03 02:32:16;;;;;;;3.83;2.65;;;;;;;12.67;60.43;96060.91;5005099;28;20022;-27
2023/03/03 02:34:51;;;;;;;4.63;2.10;;;;;;;12.71;59.91;96053.38;4998075;28;20035;-26
2023/03/03 02:37:18;;;;;;;3.60;2.15;;;;;;;12.74;59.58;96047.00;4998812;28;20165;-27
2023/03/03 02:39:44;;;;;;;2.70;2.30;;;;;;;12.52;60.15;96053.28;5004734;28;20028;-27
2023/03/03 02:42:19;;;;;;;2.83;2.13;;;;;;;12.65;59.86;96039.59;4997969;28;20501;-26
2023/03/03 02:44:44;;;;;;;3.17;2.38;;;;;;;12.46;60.30;96044.22;5011763;28;20030;-26
2023/03/03 02:47:10;;;;;;;2.47;1.83;;;;;;;12.63;59.99;96043.94;5003137;28;20029;-26
2023/03/03 02:49:36;;;;;;;2.47;2.15;;;;;;;12.56;60.03;96042.28;4999350;28;20049;-26
2023/03/03 02:52:05;;;;;;;3.10;2.10;;;;;;;12.66;59.55;96034.91;4998054;28;20455;-27
2023/03/03 02:54:31;;;;;;;3.92;2.10;;;;;;;12.50;59.73;96042.09;4997986;28;20019;-26
2023/03/03 02:56:58;;;;;;;4.82;1.88;;;;;;;12.62;59.36;96039.72;4997704;28;20033;-26
2023/03/03 02:59:23;;;;;;;3.55;2.13;;;;;;;12.54;59.61;96045.44;4997637;28;20037;-26
2023/03/03 03:01:50;;;;;;;3.67;2.20;;;;;;;12.59;59.23;96035.94;5011737;28;20053;-26
2023/03/03 03:04:18;;;;;;;3.05;1.80;;;;;;;12.59;59.37;96041.38;5004197;28;20033;-26
2023/03/03 03:06:44;;;;;;;2.15;1.67;;;;;;;12.37;59.77;96041.44;4997984;28;20046;-26
2023/03/03 03:09:11;;;;;;;2.72;1.75;;;;;;;12.50;59.90;96047.53;4996605;28;20053;-26
2023/03/03 03:11:37;;;;;;;2.17;1.80;;;;;;;12.64;59.32;96051.66;4997476;28;20022;-26
2023/03/03 03:14:04;;;;;;;2.05;1.48;;;;;;;12.62;59.07;96040.47;4998075;28;20430;-26
2023/03/03 03:16:30;;;;;;;1.80;1.50;;;;;;;12.50;60.16;96049.50;5001632;28;20030;-27
2023/03/03 03:18:56;;;;;;;2.95;1.63;;;;;;;12.58;59.54;96042.59;4999463;28;20030;-27
2023/03/03 03:21:21;;;;;;;2.20;1.60;;;;;;;12.45;59.52;96045.41;4997209;28;20509;-27
2023/03/03 03:23:47;;;;;;;3.63;1.70;;;;;;;12.54;59.46;96039.25;4997175;28;20030;-26
2023/03/03 03:26:13;;;;;;;2.22;1.90;;;;;;;12.43;59.95;96036.19;4997938;28;20073;-26
2023/03/03 03:28:38;;;;;;;3.63;2.17;;;;;;;12.46;59.86;96038.78;4997227;28;20030;-27
2023/03/03 03:31:05;;;;;;;3.88;1.98;;;;;;;12.52;59.32;96041.66;4997208;28;20109;-27
2023/03/03 03:33:31;;;;;;;5.82;2.28;;;;;;;12.55;59.78;96046.22;5010757;28;20443;-27
2023/03/03 03:35:57;;;;;;;2.90;1.95;;;;;;;12.51;59.62;96043.63;5008639;28;20087;-26
2023/03/03 03:38:24;;;;;;;3.33;2.25;;;;;;;12.48;59.69;96038.34;5006276;28;20029;-27
2023/03/03 03:40:50;;;;;;;3.88;1.95;;;;;;;12.57;59.53;96043.78;4996851;28;20033;-26
2023/03/03 03:43:15;;;;;;;3.22;1.65;;;;;;;12.43;59.64;96044.34;4996885;28;20492;-26
2023/03/03 03:45:42;;;;;;;9.05;2.85;;;;;;;12.45;59.60;96042.69;5011276;28;20091;-26
2023/03/03 03:48:08;;;;;;;3.15;2.53;;;;;;;12.55;59.25;96046.97;4996738;28;20072;-27
2023/03/03 03:50:33;;;;;;;4.10;1.73;;;;;;;12.56;58.90;96040.31;5003888;28;20022;-27
2023/03/03 03:52:59;;;;;;;2.90;2.05;;;;;;;12.47;58.71;96043.00;5003231;28;20030;-26
2023/03/03 03:55:24;;;;;;;2.10;1.50;;;;;;;12.41;58.65;96047.50;4997005;28;20026;-26
2023/03/03 03:57:50;;;;;;;2.53;1.50;;;;;;;12.43;58.69;96049.78;4997033;28;20144;-26
2023/03/03 04:00:15;;;;;;;3.50;1.40;;;;;;;12.23;59.49;96053.63;4996384;28;20124;-26
2023/03/03 04:02:41;;;;;;;1.45;1.00;;;;;;;12.40;58.97;96051.44;5003523;28;20022;-26
2023/03/03 04:05:07;;;;;;;2.10;1.30;;;;;;;12.28;59.66;96054.25;4998835;28;20026;-26
2023/03/03 04:07:32;;;;;;;3.03;1.45;;;;;;;12.46;58.82;96046.94;5000825;28;20022;-27
2023/03/03 04:09:58;;;;;;;2.50;1.52;;;;;;;12.31;59.27;96051.41;4997065;28;20018;-26
2023/03/03 04:12:23;;;;;;;2.38;1.70;;;;;;;12.27;59.30;96052.72;4996524;28;20022;-26
2023/03/03 04:14:49;;;;;;;2.25;1.67;;;;;;;12.47;58.64;96056.63;4996574;28;20030;-26
2023/03/03 04:17:19;;;;;;;3.22;1.70;;;;;;;12.48;58.15;96046.50;5001134;28;20298;-26
2023/03/03 04:19:46;;;;;;;4.05;1.80;;;;;;;12.35;59.24;96054.00;5012677;28;20452;-26
2023/03/03 04:22:12;;;;;;;2.15;1.70;;;;;;;12.44;58.92;96054.78;5003755;28;20105;-26
2023/03/03 04:24:39;;;;;;;4.88;1.75;;;;;;;12.42;58.47;96048.25;4996108;28;20030;-26
2023/03/03 04:27:05;;;;;;;2.28;1.90;;;;;;;12.42;58.40;96054.47;4995219;28;20084;-26
2023/03/03 04:29:30;;;;;;;2.83;1.92;;;;;;;12.49;58.50;96054.19;5003523;28;20026;-26
2023/03/03 04:31:56;;;;;;;3.28;1.77;;;;;;;12.26;58.94;96051.22;4995956;28;20022;-27
2023/03/03 04:34:21;;;;;;;4.38;2.22;;;;;;;12.28;58.69;96054.25;4997447;28;20030;-27
2023/03/03 04:36:47;;;;;;;4.20;1.70;;;;;;;12.36;58.44;96053.53;5002035;28;20072;-26
2023/03/03 04:39:12;;;;;;;2.83;2.20;;;;;;;12.31;58.87;96051.41;4994940;28;20026;-27
2023/03/03 04:41:38;;;;;;;3.75;2.20;;;;;;;12.39;58.62;96049.91;4996272;28;20053;-27
2023/03/03 04:44:03;;;;;;;2.97;2.05;;;;;;;12.33;57.93;96056.41;4995689;28;20033;-27
2023/03/03 04:46:28;;;;;;;4.68;2.80;;;;;;;12.18;59.06;96058.88;4996247;28;20015;-27
2023/03/03 04:48:54;;;;;;;5.57;2.55;;;;;;;12.34;58.45;96061.38;4995820;28;20026;-27
2023/03/03 04:51:19;;;;;;;4.05;2.58;;;;;;;12.49;57.69;96056.13;5001694;28;20018;-27
2023/03/03 04:53:45;;;;;;;6.78;2.42;;;;;;;12.49;58.17;96058.84;4997336;28;20041;-26
2023/03/03 04:56:10;;;;;;;5.38;2.50;;;;;;;12.42;58.47;96059.91;5000982;28;20018;-27
2023/03/03 04:58:37;;;;;;;5.38;2.17;;;;;;;12.32;58.40;96061.06;5003469;28;20382;-27
2023/03/03 05:01:02;;;;;;;5.60;2.47;;;;;;;12.38;58.29;96067.44;4993928;28;20039;-26
2023/03/03 05:03:28;;;;;;;4.03;2.92;;;;;;;12.33;57.91;96062.59;4995591;28;20029;-27
2023/03/03 05:05:53;;;;;;;5.03;2.90;;;;;;;12.42;57.99;96062.63;4996188;28;20080;-27
2023/03/03 05:08:19;;;;;;;4.18;2.45;;;;;;;12.54;57.69;96066.44;5002142;28;20069;-26
2023/03/03 05:10:44;;;;;;;2.92;2.38;;;;;;;12.42;58.06;96070.03;5001721;28;20026;-26
2023/03/03 05:13:10;;;;;;;4.18;2.42;;;;;;;12.34;58.08;96066.81;4996199;28;20028;-26
2023/03/03 05:15:36;;;;;;;3.40;2.60;;;;;;;12.32;58.02;96071.94;4995412;28;20073;-27
2023/03/03 05:18:01;;;;;;;3.63;2.42;;;;;;;12.40;57.40;96056.88;4996056;28;20022;-26
2023/03/03 05:20:27;;;;;;;4.70;2.83;;;;;;;12.28;57.95;96065.88;5002501;28;20019;-26
2023/03/03 05:22:53;;;;;;;4.40;2.72;;;;;;;12.35;57.94;96062.91;4995260;28;20497;-26
2023/03/03 05:25:20;;;;;;;4.45;2.80;;;;;;;12.29;57.95;96061.19;5002529;28;20025;-26
2023/03/03 05:27:45;;;;;;;4.32;3.38;;;;;;;12.35;57.88;96065.63;5001545;28;20491;-27
2023/03/03 05:30:11;;;;;;;5.30;3.10;;;;;;;12.33;57.56;96070.75;4996157;28;20027;-27
2023/03/03 05:32:37;;;;;;;5.82;2.90;;;;;;;12.15;57.82;96067.91;4997809;28;20034;-26
2023/03/03 05:35:04;;;;;;;4.22;2.78;;;;;;;12.26;57.72;96062.09;5000294;28;20026;-26
2023/03/03 05:37:29;;;;;;;4.82;3.05;;;;;;;12.21;57.85;96066.16;5001660;28;20038;-26
2023/03/03 05:39:55;;;;;;;6.45;3.42;;;;;;;12.26;57.46;96062.84;5008768;28;20072;-26
2023/03/03 05:42:20;;;;;;;7.38;3.00;;;;;;;12.30;57.16;96063.47;5001091;28;20035;-26
2023/03/03 05:44:46;;;;;;;3.60;2.95;;;;;;;12.20;56.68;96065.41;4997680;28;20026;-27
2023/03/03 05:47:11;;;;;;;7.88;3.15;;;;;;;12.27;56.94;96069.81;4999047;28;20022;-27
2023/03/03 05:49:37;;;;;;;6.25;3.40;;;;;;;12.22;56.83;96067.69;4999658;28;20100;-27
2023/03/03 05:52:02;;;;;;;6.47;3.30;;;;;;;12.19;56.96;96074.00;4998878;28;20050;-26
2023/03/03 05:54:28;;;;;;;4.35;3.10;;;;;;;12.17;56.53;96070.97;4999178;28;20022;-26
2023/03/03 05:56:55;;;;;;;5.50;3.00;;;;;;;12.22;56.91;96075.84;5005704;28;20572;-26
2023/03/03 05:59:20;;;;;;;5.25;2.90;;;;;;;12.03;57.86;96076.91;5003739;28;20025;-26
2023/03/03 06:01:46;;;;;;;4.13;2.88;;;;;;;12.34;56.40;96074.22;5000437;28;20047;-26
2023/03/03 06:04:13;;;;;;;4.47;2.90;;;;;;;12.15;56.72;96073.34;4998442;28;20049;-26
2023/03/03 06:06:38;;;;;;;6.07;2.92;;;;;;;12.15;56.08;96074.13;4998575;28;20022;-26
2023/03/03 06:09:04;;;;;;;7.80;3.30;;;;;;;12.11;56.74;96083.63;5007467;28;20020;-26
2023/03/03 06:11:29;;;;;;;12.48;5.05;;;;;;;12.06;57.09;96078.75;4998835;28;20446;-26
2023/03/03 06:13:55;;;;;;;14.65;6.18;;;;;;;11.96;57.31;96082.63;5005541;28;20033;-27
2023/03/03 06:16:20;;;;;;;10.75;4.80;;;;;;;12.07;56.95;96083.75;5004866;28;20053;-27
2023/03/03 06:18:46;;;;;;;13.88;4.43;;;;;;;12.31;56.25;96080.53;4998476;28;20390;-26
2023/03/03 06:21:11;;;;;;;10.25;4.13;;;;;;;12.08;57.09;96084.50;5006197;28;20091;-26
2023/03/03 06:23:37;;;;;;;6.03;3.40;;;;;;;11.97;57.20;96095.00;4998420;28;20033;-26
2023/03/03 06:26:03;;;;;;;7.60;3.75;;;;;;;12.07;57.39;96091.13;4998919;28;20441;-26
2023/03/03 06:28:28;;;;;;;6.45;3.63;;;;;;;12.08;57.03;96090.69;5000613;28;20105;-26
2023/03/03 06:30:55;;;;;;;5.32;3.42;;;;;;;12.11;56.65;96094.50;5002343;28;20021;-26
2023/03/03 06:33:21;;;;;;;6.20;2.80;;;;;;;12.13;56.77;96097.50;5005176;28;20052;-26
2023/03/03 06:35:51;;;;;;;3.75;2.80;;;;;;;12.11;57.13;96099.94;4998306;28;20462;-26
2023/03/03 06:38:17;;;;;;;6.53;3.70;;;;;;;12.15;56.35;96097.81;5006088;28;20038;-26
2023/03/03 06:40:44;;;;;;;10.85;5.13;;;;;;;12.16;56.59;96102.81;4997880;28;20057;-26
2023/03/03 06:43:09;;;;;;;7.53;3.80;;;;;;;12.04;57.23;96105.59;5004610;28;20088;-26
2023/03/03 06:45:35;;;;;;;5.53;3.00;;;;;;;12.23;56.53;96108.00;5005585;28;20030;-26
2023/03/03 06:48:00;;;;;;;4.90;3.17;;;;;;;12.26;56.93;96111.03;5002093;28;20424;-26
2023/03/03 06:50:26;;;;;;;4.72;2.90;;;;;;;12.21;57.14;96102.25;5000654;28;20019;-26
2023/03/03 06:53:06;;;;;;;4.28;2.70;;;;;;;12.22;57.12;96103.00;4997912;28;20035;-26
2023/03/03 06:55:31;;;;;;;4.55;2.67;;;;;;;12.43;56.83;96098.75;4998200;28;20493;-27
2023/03/03 06:57:58;;;;;;;5.68;3.60;;;;;;;12.33;56.80;96103.38;5000109;28;20045;-26
2023/03/03 07:00:26;;;;;;;5.38;3.42;;;;;;;12.35;57.12;96106.41;5001941;28;20039;-26
2023/03/03 07:03:07;;;;;;;4.22;2.53;;;;;;;12.34;57.49;96113.06;5004620;28;20030;-26
2023/03/03 07:05:33;;;;;;;5.82;2.70;;;;;;;12.38;57.39;96107.47;4997387;28;20023;-26
2023/03/03 07:07:58;;;;;;;6.80;2.90;;;;;;;12.26;57.63;96108.31;4998280;28;20022;-26
2023/03/03 07:10:27;;;;;;;3.00;2.50;;;;;;;12.57;56.97;96109.09;4997780;28;20018;-26
2023/03/03 07:12:55;;;;;;;5.07;2.80;;;;;;;12.44;57.01;96103.72;4998206;28;20034;-26
2023/03/03 07:15:33;;;;;;;7.35;2.90;;;;;;;12.31;57.91;96116.66;5003872;28;20077;-26
2023/03/03 07:17:59;;;;;;;4.10;2.38;;;;;;;12.59;57.59;96114.84;5004680;28;20057;-27
2023/03/03 07:20:38;;;;;;;4.43;2.78;;;;;;;12.69;57.08;96115.63;5007297;28;20496;-27
2023/03/03 07:23:24;;;;;;;3.45;2.63;;;;;;;12.54;57.53;96112.69;4999210;28;20023;-26
2023/03/03 07:25:51;;;;;;;6.57;2.67;;;;;;;12.63;57.07;96118.16;5001238;28;20029;-26
2023/03/03 07:28:22;;;;;;;6.00;2.90;;;;;;;12.51;58.17;96119.78;4997902;28;20026;-26
2023/03/03 07:30:48;;;;;;;5.78;2.67;;;;;;;12.41;58.36;96112.78;4999726;28;20026;-26
2023/03/03 07:33:26;;;;;;;6.20;3.03;;;;;;;12.52;58.08;96104.97;4997882;28;20359;-26
2023/03/03 07:35:57;;;;;;;4.35;2.58;;;;;;;12.70;57.53;96117.16;4997230;28;20032;-26
2023/03/03 07:38:34;;;;;;;4.38;2.63;;;;;;;12.67;57.44;96110.63;4997547;28;20061;-26
2023/03/03 07:41:04;;;;;;;6.00;3.10;;;;;;;12.72;58.08;96120.94;4996824;28;20030;-27
2023/03/03 07:43:29;;;;;;;6.60;3.28;;;;;;;12.73;57.12;96116.25;4996657;28;20026;-26
2023/03/03 07:46:02;;;;;;;4.78;2.80;;;;;;;12.63;57.47;96118.16;5000312;28;20475;-26
2023/03/03 07:48:35;;;;;;;3.85;2.65;;;;;;;12.63;57.59;96122.84;4996951;28;20027;-27
2023/03/03 07:51:05;;;;;;;9.43;3.00;;;;;;;12.58;58.02;96124.97;5003002;28;20057;-27
2023/03/03 07:53:34;;;;;;;3.80;2.60;;;;;;;12.73;57.94;96121.69;4997171;28;20065;-26
2023/03/03 07:56:00;;;;;;;5.07;2.65;;;;;;;12.67;57.77;96135.13;4995914;28;20019;-27
2023/03/03 07:58:37;;;;;;;4.70;3.08;;;;;;;12.79;57.75;96130.78;4996714;28;20041;-26
2023/03/03 08:01:33;;;;;;;3.13;2.17;;;;;;;12.71;57.85;96126.84;4999811;28;20401;-26
2023/03/03 08:03:59;;;;;;;6.38;2.55;;;;;;;12.55;58.48;96128.56;4997008;28;20399;-27
2023/03/03 08:06:36;;;;;;;5.88;2.55;;;;;;;12.68;58.10;96135.88;4996630;28;20105;-27
2023/03/03 08:09:45;;;;;;;3.05;2.15;;;;;;;12.65;57.81;96131.31;5003545;28;20025;-27
2023/03/03 08:12:46;;;;;;;4.97;2.45;;;;;;;12.57;58.69;96136.28;4969068;28;20035;-26
2023/03/03 08:15:18;;;;;;;2.50;2.10;;;;;;;12.82;57.94;96132.63;4910124;29;20032;-27
2023/03/03 08:17:44;;;;;;;4.93;2.60;;;;;;;12.61;57.99;96139.63;4898881;29;20544;-27
2023/03/03 08:20:28;;;;;;;5.15;2.30;;;;;;;12.62;58.74;96132.22;4906543;29;20036;-27
2023/03/03 08:22:53;;;;;;;3.25;2.20;;;;;;;12.58;58.40;96137.81;4898524;29;20564;-27
2023/03/03 08:25:19;;;;;;;3.47;2.10;;;;;;;12.51;58.63;96135.34;4899481;29;20040;-27
2023/03/03 08:27:44;;;;;;;5.47;2.28;;;;;;;12.74;58.29;96128.63;4899086;29;20028;-26
2023/03/03 08:30:10;;;;;;;3.38;2.00;;;;;;;12.59;58.36;96131.16;4898761;29;20079;-26
2023/03/03 08:32:36;;;;;;;6.97;2.42;;;;;;;12.76;57.69;96137.88;4905260;29;20140;-26
2023/03/03 08:35:01;;;;;;;4.95;2.50;;;;;;;12.86;57.37;96130.50;4905055;29;20120;-26
2023/03/03 08:37:26;;;;;;;2.83;2.03;;;;;;;12.71;58.37;96126.84;4905166;29;20424;-27
2023/03/03 08:39:52;;;;;;;3.03;1.92;;;;;;;13.07;56.93;96132.41;4902323;29;20398;-26
2023/03/03 08:42:17;;;;;;;6.10;2.20;;;;;;;13.00;57.46;96135.38;4901527;29;20481;-26
2023/03/03 08:44:43;;;;;;;5.60;2.40;;;;;;;13.04;57.10;96135.25;4906014;29;20044;-26
2023/03/03 08:47:08;;;;;;;5.40;2.20;;;;;;;12.86;57.29;96138.66;4899043;29;20138;-26
2023/03/03 08:49:34;;;;;;;4.03;2.40;;;;;;;12.85;57.56;96129.75;4969185;28;20038;-26
2023/03/03 08:51:59;;;;;;;3.38;2.20;;;;;;;12.99;57.74;96141.28;4995490;28;20073;-26
2023/03/03 08:54:25;;;;;;;3.25;2.22;;;;;;;13.10;57.62;96147.84;4995707;28;20398;-26
2023/03/03 08:56:50;;;;;;;2.95;2.08;;;;;;;13.13;57.43;96143.44;5002600;28;20021;-27
2023/03/03 08:59:16;;;;;;;2.90;1.85;;;;;;;13.21;57.45;96145.47;5000018;28;20374;-27
2023/03/03 09:01:43;;;;;;;2.92;1.90;;;;;;;13.16;57.33;96154.22;5004464;28;20402;-27
2023/03/03 09:04:09;;;;;;;3.83;1.63;;;;;;;13.27;57.12;96153.81;5002214;28;20368;-27
2023/03/03 09:06:34;;;;;;;5.03;2.30;;;;;;;13.35;56.82;96160.50;4994870;28;20030;-27
2023/03/03 09:09:00;;;;;;;3.58;1.45;;;;;;;13.40;56.96;96159.13;4996024;28;20034;-27
2023/03/03 09:11:27;;;;;;;3.22;1.80;;;;;;;13.42;56.75;96154.00;4995503;28;20030;-27
2023/03/03 09:14:13;;;;;;;4.22;1.85;;;;;;;13.47;56.51;96151.44;4995974;28;20048;-26
2023/03/03 09:16:50;;;;;;;3.28;1.80;;;;;;;13.47;56.82;96150.69;4995611;28;20418;-26
2023/03/03 09:19:35;;;;;;;5.05;1.60;;;;;;;13.44;57.19;96159.75;5005396;28;20018;-26
2023/03/03 09:22:17;;;;;;;2.53;1.52;;;;;;;13.54;57.07;96155.84;5004407;28;20112;-27
2023/03/03 09:24:43;;;;;;;2.88;1.60;;;;;;;13.66;56.85;96161.16;4994508;28;20026;-27
2023/03/03 09:27:18;;;;;;;2.55;1.80;;;;;;;13.81;56.71;96155.09;4995301;28;20026;-27
2023/03/03 09:29:43;;;;;;;2.50;1.90;;;;;;;13.69;56.96;96151.31;5000719;28;20586;-27
2023/03/03 09:32:38;;;;;;;2.30;1.50;;;;;;;13.71;57.07;96167.22;4998101;28;20026;-27
2023/03/03 09:35:35;;;;;;;2.55;1.90;;;;;;;13.80;56.48;96167.97;4995326;28;20023;-27
2023/03/03 09:38:23;;;;;;;1.95;1.20;;;;;;;13.62;57.75;96157.03;4995139;28;20037;-27
2023/03/03 09:41:08;;;;;;;3.13;1.60;;;;;;;13.76;56.82;96167.34;4995125;28;20022;-27
2023/03/03 09:44:01;;;;;;;3.13;1.50;;;;;;;13.76;57.12;96161.91;5003622;28;20025;-27
2023/03/03 09:46:35;;;;;;;4.10;1.50;;;;;;;13.78;56.40;96164.94;4996919;28;20153;-27
2023/03/03 09:49:15;;;;;;;2.03;1.50;;;;;;;13.73;56.54;96162.81;4999461;28;20385;-26
2023/03/03 09:51:54;;;;;;;2.83;1.55;;;;;;;13.74;56.59;96164.31;5002514;28;20470;-27
2023/03/03 09:54:31;;;;;;;2.78;1.50;;;;;;;13.60;56.71;96167.63;5000067;28;20027;-27
2023/03/03 09:57:08;;;;;;;2.70;1.52;;;;;;;13.69;57.10;96162.22;5002398;28;20033;-27
2023/03/03 09:59:41;;;;;;;2.92;1.40;;;;;;;13.66;56.99;96157.66;4995081;28;20026;-27
2023/03/03 10:02:39;;;;;;;1.90;1.25;;;;;;;13.87;56.40;96161.44;5002312;28;20026;-27
2023/03/03 10:06:00;;;;;;;2.45;1.73;;;;;;;13.94;56.67;96166.63;5000948;28;20117;-27
2023/03/03 10:08:28;;;;;;;3.08;1.60;;;;;;;13.94;56.52;96167.38;4954190;28;20090;-27
2023/03/03 10:11:09;;;;;;;3.33;1.55;;;;;;;13.89;56.62;96169.94;4954715;28;20115;-27
2023/03/03 10:13:49;;;;;;;2.05;1.20;;;;;;;13.89;56.52;96165.25;4960682;28;20039;-27
2023/03/03 10:16:36;;;;;;;3.10;1.58;;;;;;;13.99;56.47;96166.75;4966733;28;20113;-27
2023/03/03 10:19:32;;;;;;;2.15;1.15;;;;;;;13.88;56.16;96169.19;4964538;28;20045;-27
2023/03/03 10:22:22;;;;;;;2.63;1.27;;;;;;;13.98;55.86;96167.97;4942665;28;20035;-27
2023/03/03 10:25:10;;;;;;;3.60;1.55;;;;;;;13.93;56.64;96165.88;4971766;28;20038;-27
2023/03/03 10:28:06;;;;;;;3.72;1.77;;;;;;;14.01;55.79;96169.03;4957268;28;22057;-27
2023/03/03 10:30:31;;;;;;;2.05;1.45;;;;;;;13.81;56.21;96166.00;4957811;28;20069;-27
2023/03/03 10:33:04;;;;;;;2.67;1.42;;;;;;;14.05;55.56;96166.91;4957500;28;20612;-27
2023/03/03 10:35:30;;;;;;;1.75;1.20;;;;;;;13.83;55.94;96167.06;4964514;28;20050;-27
2023/03/03 10:38:17;;;;;;;1.63;1.20;;;;;;;13.72;56.64;96166.75;4965885;28;20034;-27
2023/03/03 10:40:51;;;;;;;3.88;1.35;;;;;;;13.84;57.13;96170.56;5000482;28;20021;-27
2023/03/03 10:43:29;;;;;;;2.88;1.38;;;;;;;13.83;56.54;96172.53;5007924;28;20116;-27
2023/03/03 10:46:13;;;;;;;3.45;1.50;;;;;;;13.81;56.56;96166.00;4997896;28;20466;-27
2023/03/03 10:49:00;;;;;;;3.88;1.55;;;;;;;13.77;56.09;96170.84;4997603;28;20113;-27
2023/03/03 10:51:25;;;;;;;3.25;1.52;;;;;;;13.91;55.70;96168.28;4998089;28;20027;-27
2023/03/03 10:53:59;;;;;;;2.60;1.10;;;;;;;13.98;55.68;96165.25;5005221;28;20034;-27
2023/03/03 10:56:50;;;;;;;2.08;1.20;;;;;;;13.82;56.14;96160.09;4997889;28;20026;-27
2023/03/03 10:59:36;;;;;;;3.22;1.55;;;;;;;13.95;55.37;96162.69;4997969;28;20073;-27
2023/03/03 11:02:14;;;;;;;3.22;1.60;;;;;;;14.03;55.63;96155.72;5012147;28;20035;-27
2023/03/03 11:05:18;;;;;;;2.42;1.45;;;;;;;13.98;55.65;96156.31;5004233;28;20060;-27
2023/03/03 11:07:53;;;;;;;;;;;;;;;14.01;55.84;96150.69;4954781;28;20066;-27
2023/03/03 11:10:45;;;;;;;2.72;1.25;;;;;;;14.00;55.12;96149.19;4954613;28;19910;-27
2023/03/03 11:13:53;;;;;;;2.58;1.40;;;;;;;14.04;53.85;96140.88;4951669;28;20091;-27
2023/03/03 11:16:40;;;;;;;2.78;1.48;;;;;;;14.12;53.78;96138.56;4954675;28;20042;-27
2023/03/03 11:19:21;;;;;;;3.22;1.00;;;;;;;14.12;54.24;96133.13;4954588;28;20042;-27
2023/03/03 11:22:04;;;;;;;3.00;1.20;;;;;;;13.95;54.56;96136.19;4954373;28;20043;-27
2023/03/03 11:25:00;;;;;;;3.17;1.10;;;;;;;13.93;54.36;96130.41;4948078;29;20071;-27
2023/03/03 11:27:47;;;;;;;3.78;2.08;;;;;;;13.98;54.21;96129.78;4954408;28;20578;-27
2023/03/03 11:30:40;;;;;;;1.42;1.00;;;;;;;13.76;53.25;96123.75;4953413;28;20028;-27
2023/03/03 11:33:14;;;;;;;2.43;1.20;;;;;;;14.23;53.40;96128.72;4938006;29;20031;-27
2023/03/03 11:36:06;;;;;;;1.40;0.93;;;;;;;14.03;53.62;96120.25;4950478;28;20034;-27
2023/03/03 11:38:40;;;;;;;4.30;1.10;;;;;;;14.21;53.88;96124.94;4927267;28;20221;-27
2023/03/03 11:41:44;;;;;;;1.77;1.10;;;;;;;14.03;54.32;96120.25;4964622;28;20069;-27
2023/03/03 11:44:34;;;;;;;2.85;1.33;;;;;;;14.13;54.37;96113.56;5003967;28;20033;-27
2023/03/03 11:47:10;;;;;;;2.30;1.13;;;;;;;14.05;54.72;96114.34;4996971;28;20022;-27
2023/03/03 11:49:39;;;;;;;2.20;1.30;;;;;;;14.10;54.89;96113.72;4997656;28;20035;-27
2023/03/03 11:52:21;;;;;;;2.28;1.20;;;;;;;14.01;55.27;96107.06;5003044;28;20453;-27
2023/03/03 11:55:03;;;;;;;2.97;1.35;;;;;;;14.19;54.65;96106.31;5004103;28;20034;-27